createdAt,value
2018-03-21T00:00:42.382Z,25.33
2018-03-21T00:03:10.416Z,28.08
2018-03-21T00:05:38.003Z,28.73
2018-03-21T00:08:05.465Z,26.23
2018-03-21T00:10:32.932Z,27.33
2018-03-21T00:13:00.755Z,26.15
2018-03-21T00:15:29.435Z,25.08
2018-03-21T00:17:57.670Z,27.83
2018-03-21T00:20:25.139Z,26.62
2018-03-21T00:22:52.605Z,26.77
2018-03-21T00:25:20.158Z,26.23
2018-03-21T00:27:47.720Z,26.00
2018-03-21T00:30:15.283Z,25.35
2018-03-21T00:32:42.842Z,25.33
2018-03-21T00:35:10.398Z,26.33
2018-03-21T00:37:37.867Z,27.08
2018-03-21T00:40:05.338Z,28.52
2018-03-21T00:42:33.586Z,26.30
2018-03-21T00:45:01.050Z,29.63
2018-03-21T00:47:28.515Z,26.08
2018-03-21T00:49:55.982Z,28.17
2018-03-21T00:52:23.455Z,27.98
2018-03-21T00:54:51.911Z,27.98
2018-03-21T00:57:19.382Z,31.70
2018-03-21T00:59:46.930Z,30.40
2018-03-21T01:02:14.486Z,31.75
2018-03-21T01:04:42.559Z,27.95
2018-03-21T01:07:10.022Z,29.00
2018-03-21T01:09:37.574Z,29.73
2018-03-21T01:12:05.139Z,30.30
2018-03-21T01:14:32.705Z,34.22
2018-03-21T01:17:00.167Z,31.15
2018-03-21T01:19:27.719Z,35.05
2018-03-21T01:21:55.276Z,31.40
2018-03-21T01:24:22.735Z,35.00
2018-03-21T01:26:50.201Z,32.33
2018-03-21T01:29:18.950Z,33.15
2018-03-21T01:31:46.422Z,36.60
2018-03-21T01:34:13.994Z,37.30
2018-03-21T01:36:41.453Z,37.30
2018-03-21T01:39:09.226Z,34.35
2018-03-21T01:41:36.694Z,35.65
2018-03-21T01:44:04.921Z,35.92
2018-03-21T01:46:32.403Z,34.38
2018-03-21T01:48:59.870Z,37.67
2018-03-21T01:51:27.334Z,39.28
2018-03-21T01:53:54.900Z,36.95
2018-03-21T01:56:22.377Z,35.22
2018-03-21T01:58:50.631Z,41.67
2018-03-21T02:01:18.231Z,38.83
2018-03-21T02:03:45.671Z,39.70
2018-03-21T02:06:13.926Z,43.03
2018-03-21T02:08:41.391Z,41.90
2018-03-21T02:11:08.854Z,45.72
2018-03-21T02:13:36.503Z,42.60
2018-03-21T02:16:04.061Z,44.20
2018-03-21T02:18:31.531Z,43.80
2018-03-21T02:20:59.765Z,38.53
2018-03-21T02:23:27.254Z,43.20
2018-03-21T02:25:54.814Z,41.13
2018-03-21T02:28:22.330Z,42.20
2018-03-21T02:30:49.802Z,40.03
2018-03-21T02:33:17.290Z,41.03
2018-03-21T02:35:44.734Z,44.97
2018-03-21T02:38:12.306Z,39.58
2018-03-21T02:40:39.770Z,42.47
2018-03-21T02:43:07.328Z,45.53
2018-03-21T02:45:34.805Z,43.13
2018-03-21T02:48:03.039Z,45.00
2018-03-21T02:50:30.501Z,44.60
2018-03-21T02:52:58.079Z,45.15
2018-03-21T02:55:25.557Z,41.92
2018-03-21T02:57:53.791Z,41.03
2018-03-21T03:00:21.263Z,39.10
2018-03-21T03:02:48.831Z,42.97
2018-03-21T03:05:16.405Z,38.75
2018-03-21T03:07:43.960Z,40.28
2018-03-21T03:10:11.439Z,41.13
2018-03-21T03:12:50.322Z,39.90
2018-03-21T03:15:19.090Z,44.50
2018-03-21T03:17:46.646Z,48.33
2018-03-21T03:20:14.146Z,38.58
2018-03-21T03:22:42.387Z,42.13
2018-03-21T03:25:09.874Z,36.00
2018-03-21T03:27:37.346Z,34.72
2018-03-21T03:30:04.904Z,34.72
2018-03-21T03:32:32.370Z,36.22
2018-03-21T03:34:59.918Z,35.97
2018-03-21T03:37:27.382Z,35.85
2018-03-21T03:39:54.859Z,33.38
2018-03-21T03:42:23.107Z,36.00
2018-03-21T03:44:50.672Z,31.83
2018-03-21T03:47:18.146Z,38.42
2018-03-21T03:49:45.689Z,35.90
2018-03-21T03:52:13.158Z,35.75
2018-03-21T03:54:40.636Z,36.50
2018-03-21T03:57:08.867Z,34.28
2018-03-21T03:59:36.340Z,33.05
2018-03-21T04:02:03.811Z,33.40
2018-03-21T04:04:31.279Z,35.00
2018-03-21T04:06:59.518Z,28.17
2018-03-21T04:09:26.990Z,35.47
2018-03-21T04:11:54.564Z,35.42
2018-03-21T04:14:22.030Z,34.00
2018-03-21T04:16:50.263Z,34.00
2018-03-21T04:19:17.743Z,34.95
2018-03-21T04:21:45.210Z,34.20
2018-03-21T04:24:12.673Z,37.75
2018-03-21T04:26:40.143Z,38.75
2018-03-21T04:29:08.378Z,38.88
2018-03-21T04:31:35.853Z,35.28
2018-03-21T04:34:03.414Z,38.30
2018-03-21T04:36:30.975Z,37.75
2018-03-21T04:38:58.447Z,38.78
2018-03-21T04:41:26.682Z,37.15
2018-03-21T04:43:54.179Z,36.95
2018-03-21T04:46:21.634Z,37.47
2018-03-21T04:48:49.102Z,37.92
2018-03-21T04:51:17.385Z,35.17
2018-03-21T04:53:44.806Z,36.83
2018-03-21T04:56:12.378Z,36.22
2018-03-21T04:58:39.850Z,34.40
2018-03-21T05:01:07.395Z,37.63
2018-03-21T05:03:34.869Z,31.45
2018-03-21T05:06:02.409Z,31.25
2018-03-21T05:08:29.975Z,35.78
2018-03-21T05:10:57.434Z,33.05
2018-03-21T05:13:24.911Z,34.00
2018-03-21T05:15:53.166Z,35.95
2018-03-21T05:18:20.638Z,37.20
2018-03-21T05:20:48.098Z,37.40
2018-03-21T05:23:16.343Z,38.88
2018-03-21T05:25:43.806Z,40.60
2018-03-21T05:28:12.198Z,40.42
2018-03-21T05:30:39.759Z,38.05
2018-03-21T05:33:07.986Z,32.95
2018-03-21T05:35:35.454Z,35.90
2018-03-21T05:38:02.950Z,37.60
2018-03-21T05:40:30.429Z,33.67
2018-03-21T05:42:58.674Z,35.97
2018-03-21T05:45:26.135Z,32.83
2018-03-21T05:47:53.733Z,34.28
2018-03-21T05:50:21.179Z,34.67
2018-03-21T05:52:48.644Z,35.85
2018-03-21T05:55:16.887Z,32.63
2018-03-21T05:57:44.355Z,32.30
2018-03-21T06:00:11.818Z,30.98
2018-03-21T06:02:40.094Z,32.30
2018-03-21T06:05:07.566Z,28.38
2018-03-21T06:07:35.807Z,23.90
2018-03-21T06:10:03.267Z,26.90
2018-03-21T06:12:30.834Z,28.58
2018-03-21T06:14:58.402Z,23.50
2018-03-21T06:17:25.974Z,22.02
2018-03-21T06:19:53.430Z,25.33
2018-03-21T06:22:20.990Z,22.77
2018-03-21T06:24:48.543Z,24.73
2018-03-21T06:27:16.102Z,21.62
2018-03-21T06:29:43.581Z,24.00
2018-03-21T06:32:11.830Z,19.45
2018-03-21T06:34:39.304Z,20.58
2018-03-21T06:37:06.774Z,19.83
2018-03-21T06:39:35.002Z,20.42
2018-03-21T06:42:02.487Z,20.85
2018-03-21T06:44:29.950Z,20.33
2018-03-21T06:46:57.501Z,21.33
2018-03-21T06:49:25.085Z,21.95
2018-03-21T06:51:53.347Z,19.45
2018-03-21T06:54:20.934Z,16.33
2018-03-21T06:56:49.215Z,18.00
2018-03-21T06:59:17.443Z,17.60
2018-03-21T07:01:44.915Z,17.60
2018-03-21T07:04:12.394Z,17.12
2018-03-21T07:06:40.652Z,18.50
2018-03-21T07:09:08.135Z,16.73
2018-03-21T07:11:36.387Z,15.05
2018-03-21T07:14:15.830Z,14.85
2018-03-21T07:16:47.102Z,14.00
2018-03-21T07:19:15.344Z,13.45
2018-03-21T07:21:43.632Z,13.65
2018-03-21T07:24:11.103Z,14.40
2018-03-21T07:26:38.574Z,12.68
2018-03-21T07:29:06.877Z,13.90
2018-03-21T07:31:34.344Z,16.80
2018-03-21T07:34:01.810Z,16.25
2018-03-21T07:36:29.295Z,16.95
2018-03-21T07:38:56.763Z,12.10
2018-03-21T07:41:24.334Z,12.15
2018-03-21T07:43:51.874Z,13.25
2018-03-21T07:46:19.338Z,12.00
2018-03-21T07:48:46.848Z,11.68
2018-03-21T07:51:14.310Z,12.10
2018-03-21T07:53:41.776Z,10.75
2018-03-21T07:56:09.235Z,14.35
2018-03-21T07:58:36.699Z,13.35
2018-03-21T08:01:04.158Z,9.52
2018-03-21T08:03:31.648Z,10.07
2018-03-21T08:05:59.115Z,11.82
2018-03-21T08:08:27.375Z,16.23
2018-03-21T08:10:54.834Z,12.85
2018-03-21T08:13:22.390Z,13.77
2018-03-21T08:15:49.861Z,11.57
2018-03-21T08:18:18.130Z,10.15
2018-03-21T08:20:45.589Z,11.52
2018-03-21T08:23:13.054Z,12.85
2018-03-21T08:25:41.323Z,9.90
2018-03-21T08:28:08.875Z,11.00
2018-03-21T08:30:36.446Z,13.82
2018-03-21T08:33:04.060Z,11.45
2018-03-21T08:35:31.520Z,13.82
2018-03-21T08:37:59.020Z,12.35
2018-03-21T08:40:26.474Z,9.77
2018-03-21T08:42:54.758Z,12.90
2018-03-21T08:45:22.315Z,11.43
2018-03-21T08:47:49.875Z,12.10
2018-03-21T08:50:18.158Z,11.10
2018-03-21T08:52:46.433Z,12.98
2018-03-21T08:55:14.712Z,11.90
2018-03-21T08:57:42.939Z,10.68
2018-03-21T09:00:10.442Z,11.20
2018-03-21T09:02:38.005Z,9.77
2018-03-21T09:05:05.576Z,10.18
2018-03-21T09:07:33.127Z,9.52
2018-03-21T09:10:00.590Z,10.15
2018-03-21T09:12:28.059Z,10.57
2018-03-21T09:14:56.314Z,10.77
2018-03-21T09:17:23.886Z,13.50
2018-03-21T09:19:52.119Z,12.95
2018-03-21T09:22:19.611Z,9.95
2018-03-21T09:24:47.882Z,11.43
2018-03-21T09:27:15.347Z,11.50
2018-03-21T09:29:42.814Z,11.82
2018-03-21T09:32:11.051Z,10.00
2018-03-21T09:34:38.511Z,15.68
2018-03-21T09:37:05.973Z,12.90
2018-03-21T09:39:33.438Z,12.68
2018-03-21T09:42:01.032Z,12.77
2018-03-21T09:44:29.266Z,13.00
2018-03-21T09:46:56.740Z,13.95
2018-03-21T09:49:24.202Z,15.45
2018-03-21T09:51:51.775Z,10.13
2018-03-21T09:54:19.242Z,10.18
2018-03-21T09:56:47.479Z,10.10
2018-03-21T09:59:14.957Z,14.27
2018-03-21T10:01:42.418Z,11.40
2018-03-21T17:38:19.036Z,11.40
2018-03-21T17:40:46.658Z,12.70
2018-03-21T17:43:15.386Z,10.57
2018-03-21T17:45:43.495Z,11.80
2018-03-21T17:48:12.035Z,11.65
2018-03-21T17:50:39.503Z,15.02
2018-03-21T17:53:07.624Z,44.90
2018-03-21T17:55:35.082Z,32.30
2018-03-21T17:58:02.558Z,27.17
2018-03-21T18:00:31.276Z,12.35
2018-03-21T18:03:00.470Z,13.65
2018-03-21T18:05:27.919Z,11.88
2018-03-21T18:07:55.745Z,9.73
2018-03-21T18:10:23.219Z,13.38
2018-03-21T18:12:51.448Z,18.83
2018-03-21T18:15:18.954Z,20.40
2018-03-21T18:17:47.187Z,22.23
2018-03-21T18:20:15.178Z,17.58
2018-03-21T18:22:42.755Z,14.77
2018-03-21T18:25:11.283Z,17.50
2018-03-21T18:27:38.752Z,16.30
2018-03-21T18:30:06.916Z,16.87
2018-03-21T18:32:34.387Z,9.60
2018-03-21T18:35:01.856Z,9.93
2018-03-21T18:37:29.392Z,12.23
2018-03-21T18:39:56.848Z,9.45
2018-03-21T18:42:24.303Z,11.07
2018-03-21T18:44:51.803Z,16.35
2018-03-21T18:47:19.385Z,12.55
2018-03-21T18:49:47.619Z,18.33
2018-03-21T18:52:15.107Z,24.87
2018-03-21T18:54:42.570Z,19.12
2018-03-21T18:57:10.040Z,14.45
2018-03-21T18:59:39.680Z,13.00
2018-03-21T19:02:07.152Z,19.58
2018-03-21T19:04:34.654Z,12.85
2018-03-21T19:07:02.152Z,17.25
2018-03-21T19:09:29.643Z,12.63
2018-03-21T19:11:57.334Z,24.15
2018-03-21T19:14:24.804Z,32.05
2018-03-21T19:16:53.038Z,35.83
2018-03-21T19:19:21.048Z,16.83
2018-03-21T19:21:49.041Z,24.45
2018-03-21T19:24:17.269Z,27.50
2018-03-21T19:26:44.727Z,18.98
2018-03-21T19:29:12.195Z,19.25
2018-03-21T19:31:39.673Z,23.70
2018-03-21T19:34:07.906Z,19.58
2018-03-21T19:36:36.622Z,9.38
2018-03-21T19:39:04.858Z,11.05
2018-03-21T19:41:32.355Z,9.73
2018-03-21T19:44:00.618Z,14.65
2018-03-21T19:46:28.074Z,7.55
2018-03-21T19:48:55.991Z,12.25
2018-03-21T19:51:23.709Z,11.90
2018-03-21T19:53:51.292Z,8.10
2018-03-21T19:56:18.743Z,12.27
2018-03-21T19:58:46.226Z,11.40
2018-03-21T20:01:13.687Z,10.38
2018-03-21T20:03:41.159Z,10.77
2018-03-21T20:06:08.623Z,11.05
2018-03-21T20:08:36.839Z,21.40
2018-03-21T20:11:04.465Z,12.02
2018-03-21T20:13:31.918Z,14.95
2018-03-21T20:15:59.423Z,14.18
2018-03-21T20:18:26.879Z,13.27
2018-03-21T20:20:54.345Z,16.17
2018-03-21T20:23:21.909Z,14.63
2018-03-21T20:25:49.363Z,13.90
2018-03-21T20:28:16.835Z,15.23
2018-03-21T21:16:37.081Z,18.85
2018-03-21T21:19:04.555Z,17.25
2018-03-21T21:21:32.339Z,22.45
2018-03-21T21:23:59.911Z,30.27
2018-03-21T21:26:27.599Z,31.40
2018-03-21T21:28:55.823Z,29.50
2018-03-21T21:31:23.402Z,16.17
2018-03-21T21:33:50.857Z,17.12
2018-03-21T21:36:18.679Z,19.23
2018-03-21T21:38:46.140Z,14.73
2018-03-21T21:41:14.290Z,13.07
2018-03-21T21:43:42.519Z,16.83
2018-03-21T21:46:10.999Z,13.02
2018-03-21T21:48:38.486Z,17.98
2018-03-21T21:51:06.672Z,14.00
2018-03-21T21:53:34.571Z,12.68
2018-03-21T21:56:02.641Z,14.90
2018-03-21T21:58:30.114Z,18.25
2018-03-21T22:00:58.399Z,14.20
2018-03-21T22:03:25.860Z,17.58
2018-03-21T22:05:53.404Z,17.62
2018-03-21T22:08:20.869Z,16.45
2018-03-21T22:10:48.342Z,15.55
2018-03-21T22:13:15.807Z,18.23
2018-03-21T22:15:43.363Z,12.93
2018-03-21T22:18:10.827Z,18.80
2018-03-21T22:20:38.389Z,15.80
2018-03-21T22:23:05.922Z,14.85
2018-03-21T22:25:33.419Z,16.33
2018-03-21T22:28:00.897Z,19.30
2018-03-21T22:30:29.702Z,14.30
2018-03-21T22:32:57.980Z,21.90
2018-03-21T22:35:26.198Z,19.35
2018-03-21T22:37:53.682Z,17.48
2018-03-21T22:40:21.146Z,18.92
2018-03-21T22:42:48.602Z,18.80
2018-03-21T22:45:16.067Z,24.95
2018-03-21T22:47:43.525Z,21.98
2018-03-21T22:50:11.791Z,17.77
2018-03-21T22:52:39.870Z,18.77
2018-03-21T22:55:07.328Z,20.58
2018-03-21T22:57:35.710Z,23.33
2018-03-21T23:00:03.170Z,21.70
2018-03-21T23:02:30.824Z,18.73
2018-03-21T23:04:59.054Z,21.87
2018-03-21T23:07:26.976Z,23.45
2018-03-21T23:09:54.442Z,23.40
2018-03-21T23:12:22.672Z,18.67
2018-03-21T23:14:50.766Z,20.80
2018-03-21T23:17:19.246Z,23.23
2018-03-21T23:19:46.717Z,21.58
2018-03-21T23:22:14.991Z,19.83
2018-03-21T23:24:42.463Z,21.37
2018-03-21T23:27:10.734Z,24.33
2018-03-21T23:29:39.435Z,19.27
2018-03-21T23:32:07.671Z,21.05
2018-03-21T23:34:35.192Z,20.23
2018-03-21T23:37:03.440Z,18.23
2018-03-21T23:39:31.840Z,18.95
2018-03-21T23:42:00.091Z,20.33
2018-03-21T23:44:27.556Z,19.55
2018-03-21T23:46:55.162Z,19.80
2018-03-21T23:49:22.645Z,20.42
2018-03-21T23:51:50.619Z,24.45
2018-03-21T23:54:18.082Z,21.77
2018-03-21T23:56:45.556Z,22.27
2018-03-21T23:59:13.723Z,21.27
